Time;durP1;ratioP1;P1;durP2;ratioP2;P2;SDS_P1;SDS_P2;PMS_P1;PMS_P2;Temp;Humidity;BMP_temperature;BMP_pressure;BME280_temperature;BME280_humidity;BME280_pressure;Samples;Min_cycle;Max_cycle;Signal;HPM_P1;HPM_P2
2022/03/30 00:01:53;;;;;;;;;;;21.50;99.90;;;;;;5074328;28;19915;-72
2022/03/30 00:04:20;;;;;;;;;;;21.60;99.90;;;;;;5073709;28;19920;-73
2022/03/30 00:06:47;;;;;;;;;;;21.50;99.90;;;;;;5074169;28;19916;-73
2022/03/30 00:09:13;;;;;;;;;;;21.60;99.90;;;;;;5074110;28;19908;-72
2022/03/30 00:11:40;;;;;;;;;;;21.50;99.90;;;;;;5074136;28;19924;-73
2022/03/30 00:14:06;;;;;;;;;;;21.60;99.90;;;;;;5074178;28;19916;-73
2022/03/30 00:16:34;;;;;;;;;;;21.50;99.90;;;;;;5072850;28;19908;-73
2022/03/30 00:19:01;;;;;;;;;;;21.40;99.90;;;;;;5073916;28;19915;-72
2022/03/30 00:21:27;;;;;;;;;;;21.40;99.90;;;;;;5073773;28;19999;-73
2022/03/30 00:23:54;;;;;;;;;;;21.40;99.90;;;;;;5073861;28;19935;-73
2022/03/30 00:26:21;;;;;;;;;;;21.50;99.90;;;;;;5073501;28;19978;-73
2022/03/30 00:28:47;;;;;;;;;;;21.50;99.90;;;;;;5067894;28;19917;-72
2022/03/30 00:31:18;;;;;;;;;;;21.50;99.90;;;;;;5061936;28;19913;-73
2022/03/30 00:33:46;;;;;;;;;;;21.70;99.90;;;;;;5053155;28;19920;-73
2022/03/30 00:36:13;;;;;;;;;;;21.80;99.90;;;;;;5052857;28;20291;-73
2022/03/30 00:38:39;;;;;;;;;;;21.90;99.90;;;;;;5053106;28;20499;-72
2022/03/30 00:41:07;;;;;;;;;;;21.90;99.90;;;;;;5053011;28;19908;-73
2022/03/30 00:43:34;;;;;;;;;;;21.90;99.90;;;;;;5068083;28;19909;-73
2022/03/30 00:46:00;;;;;;;;;;;21.80;99.90;;;;;;5073483;28;20007;-73
2022/03/30 00:48:27;;;;;;;;;;;21.80;99.90;;;;;;5073310;28;20009;-73
2022/03/30 00:50:54;;;;;;;;;;;21.80;99.90;;;;;;5073588;28;20417;-74
2022/03/30 00:53:20;;;;;;;;;;;21.50;99.90;;;;;;5073407;28;19909;-73
2022/03/30 00:55:47;;;;;;;;;;;21.30;99.90;;;;;;5073386;28;20012;-74
2022/03/30 00:58:15;;;;;;;;;;;21.20;99.90;;;;;;5073119;28;19919;-73
2022/03/30 01:00:41;;;;;;;;;;;21.20;99.90;;;;;;5073317;28;19975;-73
2022/03/30 01:03:08;;;;;;;;;;;21.20;99.90;;;;;;5073166;28;19955;-73
2022/03/30 01:05:34;;;;;;;;;;;21.10;99.90;;;;;;5073209;28;19989;-73
2022/03/30 01:08:01;;;;;;;;;;;21.20;99.90;;;;;;5073172;28;19908;-73
2022/03/30 01:10:28;;;;;;;;;;;21.30;99.90;;;;;;5073058;28;19912;-73
2022/03/30 01:12:55;;;;;;;;;;;21.40;99.90;;;;;;5072876;28;19912;-73
2022/03/30 01:15:22;;;;;;;;;;;21.40;99.90;;;;;;5073227;28;20014;-74
2022/03/30 01:17:49;;;;;;;;;;;21.40;99.90;;;;;;5073258;28;19908;-73
2022/03/30 01:20:17;;;;;;;;;;;21.40;99.90;;;;;;5072991;28;20389;-73
2022/03/30 01:22:43;;;;;;;;;;;21.40;99.90;;;;;;5073118;28;19909;-73
2022/03/30 01:25:10;;;;;;;;;;;21.40;99.90;;;;;;5072899;28;19916;-73
2022/03/30 01:27:36;;;;;;;;;;;21.50;99.90;;;;;;5073232;28;20350;-73
2022/03/30 01:32:55;;;;;;;;;;;21.70;99.90;;;;;;5073343;28;20270;-73
2022/03/30 01:35:22;;;;;;;;;;;21.80;99.90;;;;;;5073063;28;19913;-74
2022/03/30 01:37:49;;;;;;;;;;;21.80;99.90;;;;;;5072948;28;19930;-73
2022/03/30 01:40:16;;;;;;;;;;;21.90;99.90;;;;;;5072724;28;19995;-73
2022/03/30 01:42:42;;;;;;;;;;;21.90;99.90;;;;;;5072790;28;20370;-74
2022/03/30 01:45:11;;;;;;;;;;;22.00;99.90;;;;;;5073173;28;20259;-73
2022/03/30 01:47:41;;;;;;;;;;;22.10;99.90;;;;;;5072837;28;19947;-73
2022/03/30 01:50:11;;;;;;;;;;;21.90;99.90;;;;;;5072769;28;19909;-73
2022/03/30 01:52:37;;;;;;;;;;;21.90;99.90;;;;;;5072963;28;20004;-73
2022/03/30 01:55:04;;;;;;;;;;;21.70;99.90;;;;;;5072771;28;20402;-73
2022/03/30 01:57:31;;;;;;;;;;;21.50;99.90;;;;;;5072918;28;19913;-73
2022/03/30 01:59:58;;;;;;;;;;;21.30;99.90;;;;;;5072894;28;19916;-73
2022/03/30 02:02:24;;;;;;;;;;;21.10;99.90;;;;;;5072464;28;19912;-73
2022/03/30 02:04:51;;;;;;;;;;;20.80;99.90;;;;;;5072579;28;19920;-74
2022/03/30 02:07:20;;;;;;;;;;;20.80;99.90;;;;;;5072633;28;19974;-71
2022/03/30 02:09:48;;;;;;;;;;;20.80;99.90;;;;;;5072731;28;20332;-74
2022/03/30 02:12:15;;;;;;;;;;;20.70;99.90;;;;;;5072600;28;19914;-71
2022/03/30 02:14:41;;;;;;;;;;;20.70;99.90;;;;;;5072832;28;19908;-70
2022/03/30 02:17:08;;;;;;;;;;;20.70;99.90;;;;;;5072542;28;20363;-71
2022/03/30 02:19:35;;;;;;;;;;;20.90;99.90;;;;;;5072664;28;19909;-71
2022/03/30 02:22:02;;;;;;;;;;;21.00;99.90;;;;;;5072614;28;20385;-71
2022/03/30 02:24:28;;;;;;;;;;;20.90;99.90;;;;;;5073144;28;19909;-71
2022/03/30 02:26:55;;;;;;;;;;;20.90;99.90;;;;;;5075898;28;20359;-72
2022/03/30 02:29:22;;;;;;;;;;;20.90;99.90;;;;;;5075992;28;20298;-72
2022/03/30 02:31:48;;;;;;;;;;;20.90;99.90;;;;;;5076124;28;19909;-72
2022/03/30 02:34:15;;;;;;;;;;;21.10;99.90;;;;;;5075890;28;19914;-71
2022/03/30 02:36:43;;;;;;;;;;;21.00;99.90;;;;;;5075961;28;19916;-72
2022/03/30 02:39:11;;;;;;;;;;;21.10;99.90;;;;;;5075858;28;19908;-72
2022/03/30 02:41:38;;;;;;;;;;;21.10;99.90;;;;;;5075670;28;19909;-72
2022/03/30 02:44:05;;;;;;;;;;;21.20;99.90;;;;;;5075812;28;19908;-72
2022/03/30 02:46:32;;;;;;;;;;;21.10;99.90;;;;;;5068236;28;19968;-73
2022/03/30 02:48:58;;;;;;;;;;;21.10;99.90;;;;;;5057721;28;19909;-73
2022/03/30 02:51:27;;;;;;;;;;;21.00;99.90;;;;;;5067774;28;19988;-72
2022/03/30 02:53:55;;;;;;;;;;;21.00;99.90;;;;;;5075639;28;19952;-72
2022/03/30 02:56:21;;;;;;;;;;;20.90;99.90;;;;;;5075373;28;20003;-72
2022/03/30 02:58:48;;;;;;;;;;;20.90;99.90;;;;;;5075711;28;20275;-72
2022/03/30 03:01:15;;;;;;;;;;;20.90;99.90;;;;;;5075556;28;19912;-72
2022/03/30 03:03:41;;;;;;;;;;;20.90;99.90;;;;;;5075291;28;19922;-72
2022/03/30 03:06:08;;;;;;;;;;;20.80;99.90;;;;;;5075235;28;20054;-72
2022/03/30 03:08:35;;;;;;;;;;;20.80;99.90;;;;;;5075476;28;19915;-72
2022/03/30 03:11:02;;;;;;;;;;;20.70;99.90;;;;;;5075309;28;20343;-72
2022/03/30 03:13:28;;;;;;;;;;;20.70;99.90;;;;;;5075341;28;19913;-72
2022/03/30 03:15:55;;;;;;;;;;;20.70;99.90;;;;;;5075278;28;20008;-72
2022/03/30 03:18:22;;;;;;;;;;;20.70;99.90;;;;;;5075089;28;20334;-72
2022/03/30 03:20:50;;;;;;;;;;;20.80;99.90;;;;;;5075265;28;19909;-72
2022/03/30 03:23:17;;;;;;;;;;;20.80;99.90;;;;;;5075209;28;19909;-72
2022/03/30 03:25:44;;;;;;;;;;;20.80;99.90;;;;;;5074971;28;19912;-72
2022/03/30 03:28:11;;;;;;;;;;;20.80;99.90;;;;;;5074964;28;19914;-72
2022/03/30 03:30:38;;;;;;;;;;;20.90;99.90;;;;;;5074999;28;20007;-72
2022/03/30 03:33:05;;;;;;;;;;;20.80;99.90;;;;;;5074963;28;19909;-72
2022/03/30 03:35:32;;;;;;;;;;;20.70;99.90;;;;;;5074807;28;19987;-72
2022/03/30 03:37:59;;;;;;;;;;;20.80;99.90;;;;;;5074899;28;20377;-72
2022/03/30 03:40:27;;;;;;;;;;;20.70;99.90;;;;;;5074546;28;19909;-72
2022/03/30 03:42:53;;;;;;;;;;;20.70;99.90;;;;;;5074768;28;19908;-73
2022/03/30 03:45:20;;;;;;;;;;;20.70;99.90;;;;;;5074456;28;20003;-73
2022/03/30 03:47:48;;;;;;;;;;;20.70;99.90;;;;;;5074804;28;19962;-73
2022/03/30 03:50:15;;;;;;;;;;;20.80;99.90;;;;;;5074482;28;19955;-72
2022/03/30 03:52:42;;;;;;;;;;;20.90;99.90;;;;;;5074592;28;19908;-72
2022/03/30 03:55:10;;;;;;;;;;;20.90;99.90;;;;;;5074368;28;19944;-72
2022/03/30 03:57:38;;;;;;;;;;;21.00;99.90;;;;;;5074581;28;20003;-73
2022/03/30 04:00:05;;;;;;;;;;;21.20;99.90;;;;;;5074355;28;19927;-72
2022/03/30 04:02:32;;;;;;;;;;;21.40;99.90;;;;;;5074159;28;19909;-73
2022/03/30 04:04:58;;;;;;;;;;;21.50;99.90;;;;;;5074101;28;19928;-73
2022/03/30 04:07:25;;;;;;;;;;;21.60;99.90;;;;;;5074355;28;19920;-73
2022/03/30 04:09:52;;;;;;;;;;;21.80;99.90;;;;;;5074068;28;20426;-73
2022/03/30 04:12:18;;;;;;;;;;;21.90;99.90;;;;;;5073846;28;19908;-73
2022/03/30 04:14:45;;;;;;;;;;;21.90;99.90;;;;;;5074131;28;19908;-73
2022/03/30 04:17:12;;;;;;;;;;;22.00;99.90;;;;;;5073894;28;19908;-73
2022/03/30 04:19:39;;;;;;;;;;;22.00;99.90;;;;;;5073828;28;20351;-73
2022/03/30 04:22:05;;;;;;;;;;;22.00;99.90;;;;;;5074061;28;19915;-73
2022/03/30 04:24:32;;;;;;;;;;;21.90;99.90;;;;;;5073895;28;19916;-73
2022/03/30 04:26:59;;;;;;;;;;;21.90;99.90;;;;;;5073855;28;19923;-72
2022/03/30 04:29:25;;;;;;;;;;;21.90;99.90;;;;;;5073907;28;20408;-73
2022/03/30 04:31:52;;;;;;;;;;;21.90;99.90;;;;;;5073901;28;19909;-73
2022/03/30 04:34:19;;;;;;;;;;;21.90;99.90;;;;;;5073520;28;20421;-73
2022/03/30 04:36:45;;;;;;;;;;;21.90;99.90;;;;;;5073551;28;19908;-73
2022/03/30 04:39:12;;;;;;;;;;;21.90;99.90;;;;;;5073502;28;20375;-73
2022/03/30 04:41:39;;;;;;;;;;;21.80;99.90;;;;;;5073566;28;20252;-73
2022/03/30 04:44:05;;;;;;;;;;;21.90;99.90;;;;;;5073552;28;19931;-73
2022/03/30 04:46:32;;;;;;;;;;;22.00;99.90;;;;;;5073213;28;19924;-73
2022/03/30 04:48:59;;;;;;;;;;;22.00;99.90;;;;;;5072975;28;20012;-73
2022/03/30 04:51:25;;;;;;;;;;;22.00;99.90;;;;;;5073443;28;20316;-72
2022/03/30 04:53:52;;;;;;;;;;;22.10;99.90;;;;;;5073414;28;20391;-73
2022/03/30 04:56:19;;;;;;;;;;;22.10;99.90;;;;;;5073165;28;20509;-74
2022/03/30 04:58:45;;;;;;;;;;;22.20;99.90;;;;;;5073667;28;19999;-72
2022/03/30 05:01:12;;;;;;;;;;;22.10;99.90;;;;;;5073428;28;20374;-73
2022/03/30 05:03:39;;;;;;;;;;;22.10;99.90;;;;;;5073196;28;19913;-73
2022/03/30 05:06:05;;;;;;;;;;;22.00;99.90;;;;;;5073358;28;19921;-73
2022/03/30 05:08:35;;;;;;;;;;;21.90;99.90;;;;;;5072655;28;20201;-73
2022/03/30 05:11:02;;;;;;;;;;;21.80;99.90;;;;;;5073097;28;19948;-73
2022/03/30 05:13:29;;;;;;;;;;;21.70;99.90;;;;;;5073244;28;19931;-73
2022/03/30 05:15:55;;;;;;;;;;;21.80;99.90;;;;;;5073344;28;19954;-73
2022/03/30 05:18:22;;;;;;;;;;;21.70;99.90;;;;;;5073024;28;19954;-73
2022/03/30 05:20:49;;;;;;;;;;;21.70;99.90;;;;;;5073256;28;19970;-73
2022/03/30 05:23:15;;;;;;;;;;;21.70;99.90;;;;;;5073257;28;19928;-73
2022/03/30 05:25:42;;;;;;;;;;;21.60;99.90;;;;;;5072951;28;20370;-73
2022/03/30 05:28:09;;;;;;;;;;;21.60;99.90;;;;;;5073048;28;19908;-73
2022/03/30 05:30:36;;;;;;;;;;;21.50;99.90;;;;;;5073301;28;20351;-73
2022/03/30 05:33:03;;;;;;;;;;;21.50;99.90;;;;;;5073173;28;20351;-73
2022/03/30 05:35:29;;;;;;;;;;;21.50;99.90;;;;;;5073082;28;19909;-73
2022/03/30 05:37:56;;;;;;;;;;;21.60;99.90;;;;;;5073005;28;19916;-73
2022/03/30 05:40:23;;;;;;;;;;;21.60;99.90;;;;;;5072750;28;20374;-73
2022/03/30 05:42:49;;;;;;;;;;;21.60;99.90;;;;;;5073060;28;20065;-73
2022/03/30 05:45:16;;;;;;;;;;;21.60;99.90;;;;;;5073072;28;19919;-73
2022/03/30 05:47:43;;;;;;;;;;;21.60;99.90;;;;;;5073094;28;19912;-73
2022/03/30 05:50:10;;;;;;;;;;;21.50;99.90;;;;;;5072812;28;19909;-73
2022/03/30 05:52:37;;;;;;;;;;;21.60;99.90;;;;;;5070195;28;20007;-73
2022/03/30 05:55:03;;;;;;;;;;;21.50;99.90;;;;;;5070924;28;20015;-72
2022/03/30 05:57:30;;;;;;;;;;;21.50;99.90;;;;;;5070762;28;20011;-73
2022/03/30 05:59:58;;;;;;;;;;;21.40;99.90;;;;;;5074070;28;19951;-73
2022/03/30 06:02:24;;;;;;;;;;;21.40;99.90;;;;;;5074264;28;20421;-72
2022/03/30 06:04:53;;;;;;;;;;;21.30;99.90;;;;;;5073998;28;19920;-72
2022/03/30 06:07:20;;;;;;;;;;;21.20;99.90;;;;;;5062029;28;20283;-73
2022/03/30 06:09:47;;;;;;;;;;;21.20;99.90;;;;;;5054263;28;19913;-73
2022/03/30 06:12:13;;;;;;;;;;;21.30;99.90;;;;;;5054277;28;19941;-73
2022/03/30 06:14:41;;;;;;;;;;;21.30;99.90;;;;;;5054406;28;19916;-71
2022/03/30 06:17:07;;;;;;;;;;;21.30;99.90;;;;;;5054413;28;19908;-72
2022/03/30 06:19:35;;;;;;;;;;;21.30;99.90;;;;;;5053886;28;19912;-72
2022/03/30 06:22:05;;;;;;;;;;;21.20;99.90;;;;;;5054189;28;19916;-72
2022/03/30 06:24:32;;;;;;;;;;;21.20;99.90;;;;;;5053747;28;20328;-72
2022/03/30 06:26:59;;;;;;;;;;;21.30;99.90;;;;;;5053943;28;19925;-72
2022/03/30 06:29:25;;;;;;;;;;;21.10;99.90;;;;;;5054030;28;19909;-72
2022/03/30 06:31:52;;;;;;;;;;;21.20;99.90;;;;;;5053776;28;19916;-72
2022/03/30 06:34:19;;;;;;;;;;;21.20;99.90;;;;;;5053739;28;19982;-72
2022/03/30 06:36:45;;;;;;;;;;;21.20;99.90;;;;;;5055367;28;19982;-71
2022/03/30 06:39:12;;;;;;;;;;;21.10;99.90;;;;;;5053761;28;19908;-71
2022/03/30 06:41:39;;;;;;;;;;;21.10;99.90;;;;;;5053666;28;19913;-72
2022/03/30 06:44:06;;;;;;;;;;;21.10;99.90;;;;;;5053742;28;19909;-74
2022/03/30 06:46:37;;;;;;;;;;;21.20;99.90;;;;;;5053361;28;19921;-72
2022/03/30 06:49:05;;;;;;;;;;;21.20;99.90;;;;;;5053763;28;19912;-72
2022/03/30 06:51:32;;;;;;;;;;;21.20;99.90;;;;;;5053892;28;20425;-73
2022/03/30 06:53:58;;;;;;;;;;;21.10;99.90;;;;;;5052104;28;19916;-73
2022/03/30 06:56:25;;;;;;;;;;;21.20;99.90;;;;;;5053271;28;20378;-72
2022/03/30 06:58:52;;;;;;;;;;;21.20;99.90;;;;;;5052871;28;20240;-73
2022/03/30 07:01:19;;;;;;;;;;;21.20;99.90;;;;;;5053341;28;19986;-73
2022/03/30 07:03:45;;;;;;;;;;;21.20;99.90;;;;;;5053290;28;19940;-72
2022/03/30 07:06:12;;;;;;;;;;;21.10;99.90;;;;;;5053079;28;20376;-72
2022/03/30 07:11:24;;;;;;;;;;;21.00;99.90;;;;;;5052326;28;20094;-72
2022/03/30 07:13:52;;;;;;;;;;;21.00;99.90;;;;;;5053215;28;20351;-72
2022/03/30 07:16:19;;;;;;;;;;;20.90;99.90;;;;;;5051605;28;19980;-73
2022/03/30 07:18:45;;;;;;;;;;;20.80;99.90;;;;;;5053163;28;20268;-72
2022/03/30 07:21:12;;;;;;;;;;;20.80;99.90;;;;;;5053145;28;19920;-72
2022/03/30 07:23:39;;;;;;;;;;;20.70;99.90;;;;;;5052994;28;19916;-72
2022/03/30 07:26:06;;;;;;;;;;;20.70;99.90;;;;;;5052557;28;19929;-72
2022/03/30 07:28:35;;;;;;;;;;;20.70;99.90;;;;;;5053007;28;20637;-72
2022/03/30 07:31:02;;;;;;;;;;;20.70;99.90;;;;;;5052875;28;19909;-72
2022/03/30 07:33:29;;;;;;;;;;;20.60;99.90;;;;;;5052903;28;19909;-72
2022/03/30 07:35:56;;;;;;;;;;;20.60;99.90;;;;;;5052921;28;19915;-72
2022/03/30 07:38:23;;;;;;;;;;;20.60;99.90;;;;;;5052065;28;19908;-72
2022/03/30 07:40:50;;;;;;;;;;;20.60;99.90;;;;;;5052813;28;19915;-72
2022/03/30 07:43:18;;;;;;;;;;;20.60;99.90;;;;;;5052562;28;19924;-73
2022/03/30 07:45:44;;;;;;;;;;;20.60;99.90;;;;;;5052604;28;19964;-73
2022/03/30 07:48:12;;;;;;;;;;;20.60;99.90;;;;;;5052515;28;19916;-72
2022/03/30 07:50:39;;;;;;;;;;;20.60;99.90;;;;;;5052179;28;20155;-71
2022/03/30 07:53:08;;;;;;;;;;;20.50;99.90;;;;;;5050997;28;20379;-72
2022/03/30 07:55:35;;;;;;;;;;;20.50;99.90;;;;;;5052635;28;19913;-71
2022/03/30 07:58:02;;;;;;;;;;;20.50;99.90;;;;;;5052431;28;19909;-71
2022/03/30 08:00:29;;;;;;;;;;;20.50;99.90;;;;;;5052058;28;19909;-72
2022/03/30 08:02:56;;;;;;;;;;;20.40;99.90;;;;;;5051948;28;20248;-71
2022/03/30 08:05:23;;;;;;;;;;;20.50;99.90;;;;;;5051042;28;20397;-72
2022/03/30 08:07:49;;;;;;;;;;;20.50;99.90;;;;;;5054178;28;19916;-71
2022/03/30 08:10:17;;;;;;;;;;;20.50;99.90;;;;;;5053887;28;19909;-72
2022/03/30 08:12:44;;;;;;;;;;;20.50;99.90;;;;;;5054156;28;20073;-72
2022/03/30 08:15:15;;;;;;;;;;;20.40;99.90;;;;;;5054136;28;19917;-71
2022/03/30 08:17:42;;;;;;;;;;;20.40;99.90;;;;;;5053950;28;19909;-72
2022/03/30 08:20:12;;;;;;;;;;;20.40;99.90;;;;;;5053871;28;19916;-72
2022/03/30 08:22:39;;;;;;;;;;;20.30;99.90;;;;;;5052995;28;19917;-72
2022/03/30 08:25:10;;;;;;;;;;;20.30;99.90;;;;;;5053756;28;19908;-71
2022/03/30 08:27:37;;;;;;;;;;;20.30;99.90;;;;;;5053394;28;19909;-72
2022/03/30 08:30:05;;;;;;;;;;;20.20;99.90;;;;;;5053876;28;19913;-72
2022/03/30 08:32:32;;;;;;;;;;;20.10;99.90;;;;;;5053546;28;19913;-73
2022/03/30 08:34:59;;;;;;;;;;;20.00;99.90;;;;;;5053778;28;19916;-72
2022/03/30 08:37:26;;;;;;;;;;;19.90;99.90;;;;;;5053789;28;19913;-73
2022/03/30 08:39:55;;;;;;;;;;;19.90;99.90;;;;;;5053581;28;19916;-72
2022/03/30 08:42:22;;;;;;;;;;;19.80;99.90;;;;;;5053542;28;19909;-73
2022/03/30 08:44:52;;;;;;;;;;;19.80;99.90;;;;;;5053644;28;20282;-72
2022/03/30 08:47:19;;;;;;;;;;;19.80;99.90;;;;;;5053572;28;19920;-73
2022/03/30 08:49:50;;;;;;;;;;;19.80;99.90;;;;;;5053706;28;19940;-73
2022/03/30 08:52:17;;;;;;;;;;;19.80;99.90;;;;;;5053441;28;19912;-72
2022/03/30 08:54:45;;;;;;;;;;;19.80;99.90;;;;;;5053340;28;19909;-72
2022/03/30 08:57:12;;;;;;;;;;;19.80;99.90;;;;;;5053488;28;19912;-72
2022/03/30 08:59:39;;;;;;;;;;;19.80;99.90;;;;;;5053366;28;19909;-72
2022/03/30 09:02:08;;;;;;;;;;;19.80;99.90;;;;;;5053226;28;19949;-73
2022/03/30 09:04:34;;;;;;;;;;;19.80;99.90;;;;;;5053211;28;20264;-72
2022/03/30 09:07:01;;;;;;;;;;;19.80;99.90;;;;;;5053269;28;20422;-72
2022/03/30 09:09:35;;;;;;;;;;;19.80;99.90;;;;;;5052612;28;19915;-73
2022/03/30 09:12:07;;;;;;;;;;;19.80;99.90;;;;;;5053325;28;19940;-73
2022/03/30 09:14:37;;;;;;;;;;;19.80;99.90;;;;;;5053152;28;20003;-71
2022/03/30 09:17:05;;;;;;;;;;;19.80;99.90;;;;;;5053396;28;19920;-71
2022/03/30 09:19:39;;;;;;;;;;;19.80;99.90;;;;;;5053067;28;19913;-71
2022/03/30 09:22:07;;;;;;;;;;;19.80;99.90;;;;;;5053153;28;19909;-72
2022/03/30 09:24:35;;;;;;;;;;;19.80;99.90;;;;;;5052462;28;20281;-72
2022/03/30 09:27:02;;;;;;;;;;;19.80;99.90;;;;;;5053104;28;20352;-73
2022/03/30 09:29:31;;;;;;;;;;;19.80;99.90;;;;;;5053158;28;19908;-73
2022/03/30 09:32:01;;;;;;;;;;;19.80;99.90;;;;;;5053095;28;20389;-74
2022/03/30 09:34:33;;;;;;;;;;;19.80;99.90;;;;;;5055501;28;19913;-72
2022/03/30 09:37:00;;;;;;;;;;;19.70;99.90;;;;;;5057323;28;19948;-73
2022/03/30 09:39:31;;;;;;;;;;;19.70;99.90;;;;;;5056545;28;19909;-72
2022/03/30 09:41:59;;;;;;;;;;;19.70;99.90;;;;;;5057291;28;19909;-72
2022/03/30 09:44:28;;;;;;;;;;;19.80;99.90;;;;;;5056902;28;19995;-72
2022/03/30 09:47:03;;;;;;;;;;;19.70;99.90;;;;;;5056998;28;19928;-72
2022/03/30 09:49:34;;;;;;;;;;;19.80;99.90;;;;;;5057089;28;19916;-72
2022/03/30 09:52:00;;;;;;;;;;;19.70;99.90;;;;;;5056825;28;20011;-73
2022/03/30 09:54:37;;;;;;;;;;;19.70;99.90;;;;;;5056105;28;19912;-72
2022/03/30 09:57:13;;;;;;;;;;;19.70;99.90;;;;;;5056923;28;19913;-72
2022/03/30 09:59:58;;;;;;;;;;;19.70;99.90;;;;;;5056729;28;19955;-72
2022/03/30 10:02:25;;;;;;;;;;;19.70;99.90;;;;;;5056423;28;19920;-71
2022/03/30 10:04:53;;;;;;;;;;;19.70;99.90;;;;;;5056235;28;19924;-71
2022/03/30 10:07:21;;;;;;;;;;;19.70;99.90;;;;;;5056249;28;19920;-72
2022/03/30 10:09:48;;;;;;;;;;;19.80;99.90;;;;;;5056148;28;20363;-72
2022/03/30 10:12:17;;;;;;;;;;;19.80;99.90;;;;;;5056267;28;19920;-72
2022/03/30 10:14:45;;;;;;;;;;;19.80;99.90;;;;;;5056487;28;19909;-72
2022/03/30 10:17:13;;;;;;;;;;;19.80;99.90;;;;;;5056533;28;19909;-72
2022/03/30 10:19:44;;;;;;;;;;;19.80;99.90;;;;;;5056595;28;20340;-72
2022/03/30 10:22:19;;;;;;;;;;;19.80;99.90;;;;;;5056111;28;19909;-72
2022/03/30 10:24:56;;;;;;;;;;;19.90;99.90;;;;;;5056020;28;19916;-73
2022/03/30 10:27:30;;;;;;;;;;;19.90;99.90;;;;;;5056079;28;20295;-72
2022/03/30 10:29:59;;;;;;;;;;;19.90;99.90;;;;;;5056143;28;19909;-72
2022/03/30 10:32:32;;;;;;;;;;;20.00;99.90;;;;;;5055965;28;19915;-72
2022/03/30 10:35:00;;;;;;;;;;;20.00;99.90;;;;;;5056128;28;20287;-72
2022/03/30 10:37:29;;;;;;;;;;;20.00;99.90;;;;;;5087562;28;19909;-72
2022/03/30 10:40:04;;;;;;;;;;;20.00;99.90;;;;;;5056218;28;19913;-72
2022/03/30 10:42:46;;;;;;;;;;;20.00;99.90;;;;;;5055599;28;19915;-73
2022/03/30 10:45:28;;;;;;;;;;;20.00;99.90;;;;;;5054690;28;19984;-73
2022/03/30 10:48:13;;;;;;;;;;;19.90;99.90;;;;;;5055928;28;20061;-72
2022/03/30 10:50:44;;;;;;;;;;;19.90;99.90;;;;;;5055975;28;19909;-73
2022/03/30 10:53:29;;;;;;;;;;;19.80;99.90;;;;;;5055070;28;20367;-73
2022/03/30 10:56:15;;;;;;;;;;;19.70;99.90;;;;;;5055653;28;19909;-72
2022/03/30 10:59:00;;;;;;;;;;;19.70;99.90;;;;;;5055344;28;19915;-73
2022/03/30 11:01:30;;;;;;;;;;;19.60;99.90;;;;;;5055702;28;19919;-73
2022/03/30 11:04:18;;;;;;;;;;;19.60;99.90;;;;;;5055571;28;19928;-72
2022/03/30 11:07:05;;;;;;;;;;;19.60;99.90;;;;;;5055551;28;19921;-73
2022/03/30 11:09:33;;;;;;;;;;;19.50;99.90;;;;;;5058423;28;20000;-73
2022/03/30 11:12:02;;;;;;;;;;;19.50;99.90;;;;;;5055507;28;19980;-73
2022/03/30 11:14:37;;;;;;;;;;;19.50;99.90;;;;;;5055172;28;19915;-73
2022/03/30 11:17:04;;;;;;;;;;;19.50;99.90;;;;;;5055456;28;19915;-73
2022/03/30 11:19:49;;;;;;;;;;;19.40;99.90;;;;;;5055278;28;19996;-73
2022/03/30 11:22:22;;;;;;;;;;;19.40;99.90;;;;;;5054830;28;19912;-73
2022/03/30 11:25:18;;;;;;;;;;;19.30;99.90;;;;;;5055289;28;19909;-73
2022/03/30 11:27:45;;;;;;;;;;;19.40;99.90;;;;;;5055323;28;19960;-73
2022/03/30 11:30:16;;;;;;;;;;;19.40;99.90;;;;;;5054991;28;20356;-73
2022/03/30 11:32:44;;;;;;;;;;;19.40;99.90;;;;;;5055182;28;20042;-73
2022/03/30 11:35:12;;;;;;;;;;;19.40;99.90;;;;;;5055157;28;20008;-73
2022/03/30 11:37:43;;;;;;;;;;;19.40;99.90;;;;;;5054428;28;19909;-73
2022/03/30 11:40:12;;;;;;;;;;;19.40;99.90;;;;;;5054796;28;19909;-73
2022/03/30 11:42:41;;;;;;;;;;;19.50;99.90;;;;;;5054878;28;19909;-73
2022/03/30 11:45:20;;;;;;;;;;;19.40;99.90;;;;;;5054810;28;19909;-73
2022/03/30 11:47:48;;;;;;;;;;;19.50;99.90;;;;;;5058453;28;19917;-73
2022/03/30 11:50:16;;;;;;;;;;;19.50;99.90;;;;;;5055917;28;19941;-73
2022/03/30 11:52:44;;;;;;;;;;;19.50;99.90;;;;;;5054819;28;19970;-73
2022/03/30 11:55:11;;;;;;;;;;;19.50;99.90;;;;;;5054919;28;19909;-72
2022/03/30 11:57:42;;;;;;;;;;;19.50;99.90;;;;;;5054701;28;19956;-73
2022/03/30 12:00:09;;;;;;;;;;;19.50;99.90;;;;;;5054627;28;19909;-73
2022/03/30 12:02:37;;;;;;;;;;;19.40;99.90;;;;;;5054761;28;19909;-72
2022/03/30 12:05:04;;;;;;;;;;;19.40;99.90;;;;;;5054689;28;20368;-72
2022/03/30 12:07:33;;;;;;;;;;;19.40;99.90;;;;;;5053920;28;19924;-73
2022/03/30 12:10:00;;;;;;;;;;;19.40;99.90;;;;;;5054618;28;19909;-73
2022/03/30 12:12:26;;;;;;;;;;;19.40;99.90;;;;;;5054264;28;19909;-73
2022/03/30 12:14:59;;;;;;;;;;;19.40;99.90;;;;;;5054428;28;19909;-73
2022/03/30 12:17:27;;;;;;;;;;;19.40;99.90;;;;;;5054039;28;19960;-73
2022/03/30 12:19:54;;;;;;;;;;;19.40;99.90;;;;;;5054277;28;19909;-73
2022/03/30 12:22:21;;;;;;;;;;;19.30;99.90;;;;;;5053781;28;19991;-73
2022/03/30 12:24:48;;;;;;;;;;;19.30;99.90;;;;;;5054230;28;19909;-73
2022/03/30 12:27:15;;;;;;;;;;;19.20;99.90;;;;;;5054113;28;20362;-73
2022/03/30 12:29:44;;;;;;;;;;;19.20;99.90;;;;;;5054147;28;19909;-73
2022/03/30 12:32:13;;;;;;;;;;;19.10;99.90;;;;;;5053751;28;19915;-73
2022/03/30 12:34:40;;;;;;;;;;;19.10;99.90;;;;;;5054039;28;19916;-73
2022/03/30 12:37:08;;;;;;;;;;;19.00;99.90;;;;;;5053862;28;19909;-73
2022/03/30 12:39:40;;;;;;;;;;;19.00;99.90;;;;;;5053769;28;19909;-73
2022/03/30 12:42:13;;;;;;;;;;;19.00;99.90;;;;;;5053503;28;19962;-73
2022/03/30 12:44:40;;;;;;;;;;;18.90;99.90;;;;;;5053853;28;19999;-73
2022/03/30 12:47:25;;;;;;;;;;;18.90;99.90;;;;;;5053617;28;19939;-73
2022/03/30 12:49:52;;;;;;;;;;;18.90;99.90;;;;;;5053709;28;20356;-73
2022/03/30 12:52:20;;;;;;;;;;;18.90;99.90;;;;;;5053214;28;19912;-73
2022/03/30 12:54:48;;;;;;;;;;;18.90;99.90;;;;;;5053458;28;19909;-73
2022/03/30 12:57:34;;;;;;;;;;;18.80;99.90;;;;;;5053517;28;19966;-72
2022/03/30 13:00:14;;;;;;;;;;;18.90;99.90;;;;;;5053569;28;19913;-73
2022/03/30 13:02:41;;;;;;;;;;;18.90;99.90;;;;;;5053495;28;19916;-73
2022/03/30 13:05:08;;;;;;;;;;;18.90;99.90;;;;;;5053344;28;19920;-73
2022/03/30 13:07:48;;;;;;;;;;;19.00;99.90;;;;;;5052900;28;19921;-73
2022/03/30 13:10:16;;;;;;;;;;;19.00;99.90;;;;;;5051705;28;19909;-73
2022/03/30 13:12:44;;;;;;;;;;;19.00;99.90;;;;;;5053370;28;19908;-72
2022/03/30 13:15:12;;;;;;;;;;;19.10;99.90;;;;;;5053393;28;19912;-73
2022/03/30 13:17:57;;;;;;;;;;;19.10;99.90;;;;;;5053315;28;19916;-73
2022/03/30 13:20:24;;;;;;;;;;;19.10;99.90;;;;;;5052964;28;19909;-72
2022/03/30 13:23:01;;;;;;;;;;;19.10;99.90;;;;;;5053053;28;20290;-72
2022/03/30 13:25:35;;;;;;;;;;;19.00;99.90;;;;;;5053242;28;19916;-72
2022/03/30 13:28:04;;;;;;;;;;;19.00;99.90;;;;;;5053196;28;19999;-72
2022/03/30 13:30:31;;;;;;;;;;;19.00;99.90;;;;;;5052906;28;19909;-73
2022/03/30 13:32:58;;;;;;;;;;;18.90;99.90;;;;;;5053041;28;20378;-72
2022/03/30 13:35:25;;;;;;;;;;;18.80;99.90;;;;;;5053163;28;19913;-72
2022/03/30 13:37:52;;;;;;;;;;;18.80;99.90;;;;;;5052155;28;19919;-73
2022/03/30 13:40:19;;;;;;;;;;;18.90;99.90;;;;;;5052709;28;19913;-72
2022/03/30 13:42:46;;;;;;;;;;;18.80;99.90;;;;;;5053070;28;20367;-72
2022/03/30 13:45:14;;;;;;;;;;;18.80;99.90;;;;;;5052941;28;20367;-72
2022/03/30 13:47:44;;;;;;;;;;;18.90;99.90;;;;;;5052949;28;20007;-72
2022/03/30 13:50:11;;;;;;;;;;;18.80;99.90;;;;;;5052739;28;19970;-72
2022/03/30 13:52:38;;;;;;;;;;;18.80;99.90;;;;;;5052750;28;19909;-72
2022/03/30 13:55:06;;;;;;;;;;;18.90;99.90;;;;;;5052878;28;20360;-73
2022/03/30 13:57:33;;;;;;;;;;;18.90;99.90;;;;;;5052895;28;20348;-73
2022/03/30 14:00:00;;;;;;;;;;;18.80;99.90;;;;;;5052870;28;20271;-72
2022/03/30 14:02:26;;;;;;;;;;;18.80;99.90;;;;;;5052699;28;19909;-72
2022/03/30 14:04:53;;;;;;;;;;;18.70;99.90;;;;;;5052715;28;19951;-71
2022/03/30 14:07:20;;;;;;;;;;;18.60;99.90;;;;;;5052531;28;20012;-72
2022/03/30 14:09:46;;;;;;;;;;;18.50;99.90;;;;;;5052830;28;20004;-73
2022/03/30 14:12:13;;;;;;;;;;;18.40;99.90;;;;;;5052590;28;20401;-72
2022/03/30 14:14:40;;;;;;;;;;;18.50;99.90;;;;;;5052826;28;19955;-73
2022/03/30 14:17:06;;;;;;;;;;;18.50;99.90;;;;;;5052653;28;19916;-72
2022/03/30 14:19:33;;;;;;;;;;;18.50;99.90;;;;;;5053591;28;19909;-72
2022/03/30 14:22:00;;;;;;;;;;;18.50;99.90;;;;;;5056289;28;19908;-72
2022/03/30 14:24:27;;;;;;;;;;;18.60;99.90;;;;;;5056153;28;20008;-72
2022/03/30 14:26:54;;;;;;;;;;;18.60;99.90;;;;;;5056313;28;19917;-72
2022/03/30 14:29:21;;;;;;;;;;;18.60;99.90;;;;;;5056237;28;19909;-73